Latest Weather Observations for Minnipa RS

IDS60801

Issued at 8:11 am CDT Tuesday 6 December 2022 (issued every 10 minutes, with the page automatically refreshed every 10 minutes)

About weather observations | Map of weather stations | Latest weather observations for SA | Other Formats
Station Details ID: 018195 Name: MINNIPA PIRSA Lat: -32.84 Lon: 135.15 Height: 165.0 m
Data from the previous 72 hours. | See also: Recent months at Minnipa RS
Date/Time
CDT
Temp
°C
App
Temp
°C
Dew
Point
°C
Rel
Hum
%
Delta-T
°C
Wind Press
QNH
hPa
Press
MSL
hPa
Rain since
9am
mm
Dir  Spd
km/h
Gust
km/h
Spd
kts
Gust
kts
06/08:00am 16.1 12.7 10.6 70 2.9 ESE 19 22 10 12 1010.2 1009.6 2.6
06/07:30am 13.8 11.2 10.6 81 1.7 ESE 15 20 8 11 1010.2 1009.6 2.6
06/07:00am 13.6 11.3 10.4 81 1.7 SE 13 17 7 9 1010.1 1009.5 2.6
06/06:30am 13.1 10.8 10.3 83 1.5 SE 13 19 7 10 1009.5 1008.8 2.6
06/06:00am 13.1 10.0 10.3 83 1.5 ESE 17 20 9 11 1009.5 1008.8 2.6
06/05:30am 13.0 10.3 10.2 83 1.5 ESE 15 19 8 10 1009.5 1008.8 2.6
06/05:00am 13.6 10.2 10.4 81 1.7 E 19 30 10 16 1009.1 1008.4 2.6
06/04:30am 13.3 11.3 10.1 81 1.7 SE 11 17 6 9 1009.8 1009.2 2.6
06/04:00am 13.4 10.6 10.0 80 1.8 ESE 15 20 8 11 1009.6 1008.9 2.6
06/03:30am 13.3 10.9 9.9 80 1.8 SE 13 19 7 10 1010.2 1009.6 2.6
06/03:00am 13.7 10.5 9.9 78 2.0 ESE 17 24 9 13 1010.4 1009.8 2.6
06/02:30am 14.1 10.5 9.7 75 2.3 ESE 19 24 10 13 1010.3 1009.7 2.6
06/02:00am 14.2 9.6 9.8 75 2.3 ENE 24 32 13 17 1010.4 1009.8 2.6
06/01:30am 14.3 10.1 9.7 74 2.4 E 22 30 12 16 1011.2 1010.5 2.6
06/01:00am 14.4 10.7 9.6 73 2.5 ESE 19 26 10 14 1012.3 1011.6 2.6
06/12:30am 14.5 11.3 9.9 74 2.4 SE 17 22 9 12 1013.2 1012.5 2.6
06/12:00am 14.8 11.6 10.0 73 2.5 SE 17 24 9 13 1013.6 1012.9 2.6
 
Date/Time
CDT
Temp
°C
App
Temp
°C
Dew
Point
°C
Rel
Hum
%
Delta-T
°C
Wind Press
QNH
hPa
Press
MSL
hPa
Rain since
9am
mm
Dir  Spd
km/h
Gust
km/h
Spd
kts
Gust
kts
05/11:30pm 15.3 12.1 10.1 71 2.7 ESE 17 24 9 13 1013.5 1012.8 2.6
05/11:00pm 15.4 12.0 10.4 72 2.7 ESE 19 24 10 13 1013.9 1013.2 2.6
05/10:30pm 15.3 11.7 10.5 73 2.5 SE 20 28 11 15 1014.1 1013.4 2.6
05/10:00pm 16.1 12.5 10.0 67 3.2 ESE 19 24 10 13 1014.0 1013.3 2.6
05/09:30pm 16.1 11.6 10.2 68 3.1 ENE 24 33 13 18 1013.2 1012.5 2.6
05/09:00pm 17.0 11.7 9.7 62 3.9 E 28 43 15 23 1012.5 1011.8 2.6
05/08:30pm 18.2 13.0 8.7 54 5.0 SE 26 35 14 19 1014.0 1013.3 2.6
05/08:00pm 18.8 14.0 8.7 52 5.3 SE 24 33 13 18 1013.7 1013.0 2.6
05/07:30pm 19.3 15.4 8.6 50 5.6 SSE 19 28 10 15 1013.7 1013.0 2.6
05/07:00pm 21.7 17.2 6.0 36 8.0 SE 19 26 10 14 1013.9 1013.2 2.6
05/06:30pm 22.8 17.1 4.8 31 9.0 SE 24 33 13 18 1013.5 1012.8 2.6
05/06:00pm 24.4 18.8 5.2 29 9.8 SE 24 33 13 18 1012.9 1012.2 2.6
05/05:30pm 25.2 19.8 4.3 26 10.5 SE 22 33 12 18 1012.1 1011.4 2.6
05/05:00pm 26.4 20.7 4.8 25 11.0 SE 24 37 13 20 1012.2 1011.5 2.6
05/04:30pm 26.1 20.6 5.7 27 10.6 ESE 24 35 13 19 1012.4 1011.7 2.6
05/04:00pm 26.4 21.4 7.9 31 10.0 SE 24 35 13 19 1012.8 1012.1 2.6
05/03:30pm 24.4 20.4 9.2 38 8.3 ESE 20 35 11 19 1013.3 1012.6 2.6
05/03:00pm 22.5 18.7 11.3 49 6.3 ESE 22 35 12 19 1013.9 1013.2 2.6
05/02:30pm 20.6 18.6 13.8 65 3.9 NE 17 20 9 11 1015.4 1014.8 2.6
05/02:00pm 17.3 16.0 13.8 80 2.0 ESE 13 20 7 11 1015.9 1015.3 2.6
05/01:30pm 16.9 16.5 12.4 75 2.5 E 6 15 3 8 1016.9 1016.3 1.6
05/01:00pm 17.2 14.7 12.3 73 2.7 SE 17 20 9 11 1016.1 1015.5 1.2
05/12:30pm 16.5 15.3 12.8 79 2.1 SE 11 15 6 8 1017.6 1016.9 1.2
05/12:00pm 16.1 14.6 11.9 76 2.3 SE 11 17 6 9 1018.0 1017.3 0.4
05/11:30am 17.3 13.2 10.2 63 3.8 SSE 22 33 12 18 1017.8 1017.1 0.0
05/11:00am 18.2 15.1 9.0 55 4.8 SE 15 20 8 11 1017.6 1016.9 0.0
05/10:30am 18.7 14.8 8.7 52 5.2 S 19 24 10 13 1018.5 1017.8 0.0
05/10:00am 20.4 15.7 9.3 49 5.9 SE 24 39 13 21 1017.6 1016.9 0.0
05/09:30am 18.4 12.9 9.2 55 4.8 SE 28 37 15 20 1016.7 1016.1 0.0
05/09:00am 17.9 11.9 10.0 60 4.2 SE 32 43 17 23 1016.1 1015.5 0.0
05/08:30am 17.0 11.5 10.4 65 3.5 SE 30 44 16 24 1015.6 1015.0 0.0
05/08:00am 16.2 10.6 10.1 67 3.2 SE 30 41 16 22 1015.1 1014.5 0.0
05/07:30am 15.3 10.5 10.3 72 2.6 SE 26 35 14 19 1014.9 1014.2 0.0
05/07:00am 14.6 10.3 10.6 77 2.1 SE 24 33 13 18 1014.9 1014.2 0.0
05/06:30am 14.3 10.3 10.5 78 2.0 ESE 22 32 12 17 1014.2 1013.5 0.0
05/06:00am 14.5 10.1 10.5 77 2.1 SE 24 32 13 17 1014.9 1014.2 0.0
05/05:30am 14.4 10.8 10.4 77 2.1 SE 20 28 11 15 1014.4 1013.7 0.0
05/05:00am 14.7 10.3 10.3 75 2.3 ESE 24 32 13 17 1013.8 1013.1 0.0
05/04:30am 15.1 11.2 10.7 75 2.3 SE 22 35 12 19 1014.5 1013.8 0.0
05/04:00am 15.3 11.8 10.9 75 2.4 SE 20 33 11 18 1013.7 1013.0 0.0
05/03:30am 15.1 10.8 10.7 75 2.3 SSE 24 35 13 19 1014.4 1013.7 0.0
05/03:00am 15.2 10.2 10.8 75 2.3 SE 28 41 15 22 1014.4 1013.7 0.0
05/02:30am 15.7 11.5 11.1 74 2.5 SSE 24 33 13 18 1014.4 1013.7 0.0
05/02:00am 16.0 12.6 11.2 73 2.6 SE 20 24 11 13 1014.6 1013.9 0.0
05/01:30am 16.0 13.2 11.4 74 2.5 ESE 17 24 9 13 1014.6 1013.9 0.0
05/01:00am 15.9 13.5 11.5 75 2.4 SSE 15 20 8 11 1016.1 1015.5 0.0
05/12:30am 16.1 14.5 11.7 75 2.4 SE 11 15 6 8 1016.5 1015.9 0.0
05/12:00am 16.0 13.2 11.4 74 2.5 SSE 17 24 9 13 1017.2 1016.5 0.0
 
Date/Time
CDT
Temp
°C
App
Temp
°C
Dew
Point
°C
Rel
Hum
%
Delta-T
°C
Wind Press
QNH
hPa
Press
MSL
hPa
Rain since
9am
mm
Dir  Spd
km/h
Gust
km/h
Spd
kts
Gust
kts
04/11:30pm 16.2 13.5 11.6 74 2.5 SSE 17 24 9 13 1017.3 1016.6 0.0
04/11:00pm 16.4 13.2 12.0 75 2.4 SSE 20 26 11 14 1017.7 1017.0 0.0
04/10:30pm 16.5 14.3 12.1 75 2.4 SSE 15 20 8 11 1017.6 1016.9 0.0
04/10:00pm 16.5 13.9 12.1 75 2.4 S 17 24 9 13 1017.8 1017.1 0.0
04/09:30pm 16.7 13.5 12.0 74 2.6 S 20 30 11 16 1017.7 1017.0 0.0
04/09:00pm 16.9 12.5 11.8 72 2.8 SSW 26 35 14 19 1017.2 1016.5 0.0
04/08:30pm 17.4 13.0 11.7 69 3.1 SSW 26 39 14 21 1016.7 1016.1 0.0
04/08:00pm 17.8 13.4 11.8 68 3.3 SSW 26 39 14 21 1015.6 1015.0 0.0
04/07:30pm 18.4 13.8 12.2 67 3.5 SSW 28 41 15 22 1015.4 1014.8 0.0
04/07:00pm 19.2 15.3 12.2 64 3.9 SSW 24 37 13 20 1014.4 1013.7 0.0
04/06:30pm 20.5 16.6 12.0 58 4.8 SSW 24 33 13 18 1013.4 1012.7 0.0
04/06:00pm 21.7 17.0 12.0 54 5.5 SSW 28 37 15 20 1012.5 1011.8 0.0
04/05:30pm 23.6 17.9 11.3 46 6.9 SSW 32 43 17 23 1011.9 1011.2 0.0
04/05:00pm 25.8 19.8 6.9 30 10.0 SSW 28 35 15 19 1011.8 1011.1 0.0
04/04:30pm 25.9 19.9 8.8 34 9.4 SW 30 44 16 24 1012.1 1011.4 0.0
04/04:00pm 25.8 19.7 10.4 38 8.6 SSW 33 43 18 23 1011.9 1011.2 0.0
04/03:30pm 28.5 22.9 10.2 32 10.4 SW 30 41 16 22 1011.6 1010.9 0.0
04/03:00pm 29.7 22.4 10.3 30 11.1 SW 39 52 21 28 1011.4 1010.7 0.0
04/02:53pm 31.8 24.8 9.9 26 12.5 SW 37 52 20 28 1011.2 1010.5 0.0
04/02:37pm 37.5 30.2 4.4 13 17.9 W 32 63 17 34 1010.5 1009.9 0.0
04/02:30pm 37.8 29.8 -2.1 8 19.6 W 30 43 16 23 1010.7 1010.1 0.0
04/02:00pm 37.2 29.2 -2.5 8 19.2 W 30 44 16 24 1011.0 1010.3 0.0
04/01:30pm 37.2 29.4 -0.9 9 19.0 W 30 44 16 24 1011.3 1010.6 0.0
04/01:00pm 37.5 30.9 -0.7 9 19.1 WNW 24 39 13 21 1011.3 1010.6 0.0
04/12:30pm 37.1 30.2 -2.6 8 19.2 WNW 24 35 13 19 1011.4 1010.7 0.0
04/12:00pm 37.2 30.9 -0.9 9 19.0 WNW 22 33 12 18 1011.6 1010.9 0.0
04/11:30am 36.6 30.5 0.1 10 18.4 WNW 22 32 12 17 1012.0 1011.3 0.0
04/11:00am 36.0 29.4 -0.4 10 18.1 NW 24 39 13 21 1011.9 1011.2 0.0
04/10:30am 34.8 29.0 0.0 11 17.3 NW 20 30 11 16 1012.2 1011.5 0.0
04/10:00am 34.0 28.1 -0.6 11 16.9 WNW 20 32 11 17 1012.3 1011.6 0.0
04/09:30am 32.7 26.9 -0.4 12 16.1 NW 20 30 11 16 1012.5 1011.8 0.0
04/09:00am 31.8 25.7 -2.3 11 16.0 NNW 20 30 11 16 1012.4 1011.7 0.0
04/08:30am 30.2 24.3 -2.3 12 15.1 N 19 24 10 13 1012.1 1011.4 0.0
04/08:00am 27.8 22.2 -3.1 13 13.8 N 17 24 9 13 1011.9 1011.2 0.0
04/07:30am 26.8 21.2 -2.9 14 13.3 N 17 24 9 13 1011.4 1010.7 0.0
04/07:00am 25.4 19.3 -4.0 14 12.7 N 19 22 10 12 1011.1 1010.4 0.0
04/06:30am 24.3 18.2 -4.0 15 12.1 N 19 20 10 11 1010.7 1010.1 0.0
04/06:00am 23.4 18.0 -4.7 15 11.8 N 15 19 8 10 1010.4 1009.8 0.0
04/05:30am 24.3 18.5 -4.9 14 12.3 NNE 17 20 9 11 1010.1 1009.5 0.0
04/05:00am 24.0 18.2 -4.2 15 12.0 NNE 17 19 9 10 1009.9 1009.3 0.0
04/04:30am 23.3 17.1 -4.8 15 11.8 NNE 19 22 10 12 1009.7 1009.1 0.0
04/04:00am 24.1 18.0 -4.1 15 12.0 NE 19 20 10 11 1009.6 1008.9 0.0
04/03:30am 23.2 17.5 -4.0 16 11.5 NE 17 20 9 11 1009.8 1009.2 0.0
04/03:00am 21.6 15.7 -2.3 20 10.3 NE 19 20 10 11 1009.8 1009.2 0.0
04/02:30am 21.9 15.8 -2.7 19 10.6 ENE 20 24 11 13 1009.8 1009.2 0.0
04/02:00am 22.6 16.6 -2.9 18 11.0 ENE 19 24 10 13 1010.2 1009.6 0.0
04/01:30am 22.6 16.6 -2.9 18 11.0 ENE 19 24 10 13 1010.4 1009.8 0.0
04/01:00am 23.1 16.5 -3.3 17 11.3 ENE 22 28 12 15 1010.4 1009.8 0.0
04/12:30am 23.3 17.0 -3.9 16 11.6 ENE 20 24 11 13 1010.9 1010.2 0.0
04/12:00am 24.3 18.0 -4.0 15 12.1 ENE 20 28 11 15 1011.1 1010.4 0.0
 
Date/Time
CDT
Temp
°C
App
Temp
°C
Dew
Point
°C
Rel
Hum
%
Delta-T
°C
Wind Press
QNH
hPa
Press
MSL
hPa
Rain since
9am
mm
Dir  Spd
km/h
Gust
km/h
Spd
kts
Gust
kts
03/11:30pm 26.2 19.5 -4.4 13 13.2 E 22 30 12 16 1011.4 1010.7 0.0
03/11:00pm 26.7 19.5 -5.0 12 13.6 ESE 24 32 13 17 1011.5 1010.8 0.0
03/10:30pm 26.2 20.2 -3.4 14 13.0 ESE 19 26 10 14 1011.6 1010.9 0.0
03/10:00pm 25.2 20.3 -0.8 18 11.9 SE 15 17 8 9 1011.6 1010.9 0.0
03/09:30pm 27.3 22.2 -1.6 15 13.3 SSE 15 20 8 11 1011.3 1010.6 0.0
03/09:00pm 28.1 23.0 -1.9 14 13.8 S 15 19 8 10 1011.0 1010.3 0.0
03/08:30pm 29.4 24.1 -0.9 14 14.3 S 17 20 9 11 1010.7 1010.1 0.0
03/08:00pm 31.5 25.5 -1.3 12 15.6 SSW 20 28 11 15 1010.3 1009.7 0.0
03/07:30pm 33.4 27.3 -2.3 10 16.9 SSW 20 28 11 15 1009.9 1009.3 0.0
03/07:00pm 34.5 28.1 -1.5 10 17.4 SSW 22 30 12 16 1009.6 1008.9 0.0
03/06:30pm 36.2 31.7 -7.0 6 19.4 SSE 9 17 5 9 1009.4 1008.7 0.0
03/06:00pm 36.7 32.0 -4.7 7 19.3 SSW 11 26 6 14 1009.2 1008.5 0.0
03/05:30pm 37.1 32.6 -6.4 6 19.8 SE 9 20 5 11 1009.4 1008.7 0.0
03/05:00pm 37.0 32.2 -6.5 6 19.8 E 11 20 6 11 1009.6 1008.9 0.0
03/04:30pm 36.9 32.3 -4.5 7 19.4 NE 11 20 6 11 1009.8 1009.2 0.0
03/04:00pm 36.8 32.9 -4.6 7 19.4 SW 7 15 4 8 1010.1 1009.5 0.0
03/03:30pm 36.9 32.8 -2.7 8 19.1 SE 9 13 5 7 1010.4 1009.8 0.0
03/03:00pm 36.4 32.7 -3.1 8 18.9 NNE 7 15 4 8 1010.9 1010.2 0.0
03/02:30pm 36.0 31.7 -1.8 9 18.4 NW 11 19 6 10 1011.0 1010.3 0.0
03/02:00pm 35.6 31.2 -2.1 9 18.2 W 11 24 6 13 1011.3 1010.6 0.0
03/01:30pm 35.2 31.4 -4.0 8 18.3 WNW 7 13 4 7 1011.6 1010.9 0.0
03/01:00pm 35.3 31.3 -2.3 9 18.1 NNE 9 19 5 10 1012.0 1011.3 0.0
03/12:30pm 34.1 29.2 -3.2 9 17.5 WSW 13 20 7 11 1012.1 1011.4 0.0
03/12:00pm 34.4 29.0 -1.6 10 17.4 NNW 17 30 9 16 1012.5 1011.8 0.0
03/11:30am 33.4 26.8 -3.7 9 17.2 NNW 22 33 12 18 1012.6 1011.9 0.0
03/11:00am 33.5 27.2 -3.7 9 17.2 N 20 28 11 15 1012.8 1012.1 0.0
03/10:30am 32.5 26.5 -1.7 11 16.3 N 20 30 11 16 1012.7 1012.0 0.0
03/10:00am 31.7 25.0 -1.2 12 15.7 NNE 24 33 13 18 1013.0 1012.3 0.0
03/09:30am 30.7 24.9 0.2 14 14.8 NNE 20 28 11 15 1013.1 1012.4 0.0
03/09:00am 28.9 23.1 2.2 18 13.2 NNE 22 28 12 15 1013.0 1012.3 0.0
03/08:30am 27.0 21.7 2.8 21 12.0 NNE 20 30 11 16 1012.7 1012.0 0.0

Other formats

Comma delimited format used in spreadsheet applications
http://www.bom.gov.au/fwo/IDS60801/IDS60801.95662.axf

JavaScript Object Notation format (JSON) in row-major order
http://www.bom.gov.au/fwo/IDS60801/IDS60801.95662.json

Data quality

Most of these data are generated automatically and are frequently updated. Quality checks on data are not normally performed. It is possible for incorrect values to appear. Refer to information at About Latest Weather Observations and please check the disclaimer before using these data.